Angoon, AK

6:02 PM AKST on November 21, 2014 (GMT -0900)
Angoon | Change Station
CLOSE
Current Station
Airport
Location: Angoon,
Elevation: 0 ft
Nearby Weather Stations

Elev 0 ft 57.50 °N, 134.59 °W | Updated 6 minutes ago

Mostly Cloudy
Mostly Cloudy
39 °F
Feels Like 39 °F
N
0
Wind Variable Wind from North

Today
High -- | Low -- °F
--% Chance of Precip.
Yesterday
High -- | Low -- °F
Precip. -- in
7:55 AM 3:32 PM
Waning Crescent, 0% visible
Pressure 29.18 in
Visibility 10.0 miles
Clouds Few 600 ft
Mostly Cloudy 7000 ft
Dew Point 37 °F
Humidity 93%
Rainfall 0.03 in
Snow Depth Not available.
UV 0 out of 12
Pollen Not available.
Air Quality Not available.
Flu Activity Not available.
METAR PAGN 220256Z AUTO 00000KT 10SM FEW006 BKN070 04/03 A2918 RMK AO2

More Conditions Fewer Conditions

Pressure 29.18 in
Visibility 10.0 miles
Clouds Few 600 ft
Mostly Cloudy 7000 ft
Dew Point 37 °F
Humidity 93%
Rainfall 0.03 in
Snow Depth Not available.
UV 0 out of 12
Pollen Not available.
Air Quality Not available.
Flu Activity Not available.
METAR PAGN 220256Z AUTO 00000KT 10SM FEW006 BKN070 04/03 A2918 RMK AO2

More Conditions Fewer Conditions

10-Day Weather Forecast

Almanac

Astronomy

Nov. 21, 2014 Rise Set
Actual Time
Civil Twilight
Nautical Twilight
Astronomical Twilight
Moon
Length of Visible Light
Length of Day
Tomorrow will be .
, % of the Moon is Illuminated

Today's Extremes

State Highs State Lows

Community

WunderPhotos

Upload Photos

1,772,770 photos uploaded!

WunderBlogs® & News

Nearby

Air Quality

  Air Quality AQ Index Pollutant
Not available.

Snow Depth

Station Depth Elevation

Earthquake Activity

City Distance Mag. Time & Date
Minimum magnitude displayed is 2.5.

Coastal Water Temperatures

Place Temperature

Nearby Weather Stations